createdAt,value
2022-10-18T00:00:18.011Z,102017.28
2022-10-18T00:03:20.839Z,102020.66
2022-10-18T00:06:23.396Z,102016.53
2022-10-18T00:09:27.524Z,102020.81
2022-10-18T00:12:29.922Z,102014.03
2022-10-18T00:15:32.380Z,102028.56
2022-10-18T00:18:34.762Z,102017.44
2022-10-18T00:21:37.241Z,102014.91
2022-10-18T00:24:39.687Z,102008.09
2022-10-18T00:27:42.231Z,102012.50
2022-10-18T00:30:44.634Z,102010.81
2022-10-18T00:33:51.711Z,102002.81
2022-10-18T00:36:55.094Z,102001.22
2022-10-18T00:39:57.451Z,102003.78
2022-10-18T00:42:59.877Z,101997.84
2022-10-18T00:46:02.208Z,101998.00
2022-10-18T00:49:17.184Z,102003.19
2022-10-18T00:52:26.496Z,101991.31
2022-10-18T00:55:31.678Z,101989.44
2022-10-18T00:58:34.923Z,101991.16
2022-10-18T01:01:37.579Z,101993.78
2022-10-18T01:04:39.956Z,101984.28
2022-10-18T01:07:48.506Z,101984.44
2022-10-18T01:11:12.686Z,101982.72
2022-10-18T01:14:34.288Z,101969.03
2022-10-18T01:18:09.382Z,101974.28
2022-10-18T01:21:47.258Z,101970.84
2022-10-18T01:25:20.106Z,101963.03
2022-10-18T01:28:44.093Z,101964.03
2022-10-18T01:31:50.418Z,101961.47
2022-10-18T01:34:58.101Z,101956.25
2022-10-18T01:38:05.107Z,101952.72
2022-10-18T01:41:13.226Z,101951.88
2022-10-18T01:44:23.455Z,101950.94
2022-10-18T01:47:28.187Z,101939.81
2022-10-18T01:50:33.075Z,101946.63
2022-10-18T01:53:36.189Z,101944.94
2022-10-18T01:57:00.300Z,101940.75
2022-10-18T02:00:05.413Z,101937.28
2022-10-18T02:03:17.828Z,101935.59
2022-10-18T02:06:23.030Z,101935.56
2022-10-18T02:09:39.552Z,101930.41
2022-10-18T02:12:44.470Z,101933.03
2022-10-18T02:15:49.993Z,101931.34
2022-10-18T02:18:58.930Z,101933.13
2022-10-18T02:22:02.072Z,101935.72
2022-10-18T02:25:10.271Z,101932.38
2022-10-18T02:28:12.819Z,101931.56
2022-10-18T02:31:27.360Z,101936.81
2022-10-18T02:34:35.833Z,101941.16
2022-10-18T02:37:40.074Z,101929.19
2022-10-18T02:40:42.453Z,101931.91
2022-10-18T02:43:44.885Z,101931.72
2022-10-18T02:46:47.665Z,101926.66
2022-10-18T02:49:50.020Z,101930.91
2022-10-18T02:52:52.479Z,101924.88
2022-10-18T02:55:54.840Z,101926.41
2022-10-18T02:58:57.406Z,101923.03
2022-10-18T03:01:59.721Z,101925.72
2022-10-18T03:05:02.085Z,101924.03
2022-10-18T03:08:04.782Z,101923.16
2022-10-18T03:11:07.245Z,101918.84
2022-10-18T03:14:09.621Z,101917.06
2022-10-18T03:17:12.086Z,101920.59
2022-10-18T03:20:14.605Z,101924.84
2022-10-18T03:23:17.090Z,101926.69
2022-10-18T03:26:21.495Z,101920.69
2022-10-18T03:29:23.874Z,101922.59
2022-10-18T03:32:26.458Z,101926.97
2022-10-18T03:35:28.847Z,101922.72
2022-10-18T03:38:31.618Z,101918.53
2022-10-18T03:41:34.003Z,101916.84
2022-10-18T03:44:36.382Z,101912.34
2022-10-18T03:47:38.817Z,101912.84
2022-10-18T03:50:42.875Z,101924.03
2022-10-18T03:53:45.483Z,101911.88
2022-10-18T03:56:48.127Z,101914.53
2022-10-18T03:59:50.708Z,101911.28
2022-10-18T04:02:55.826Z,101908.44
2022-10-18T04:06:00.653Z,101909.53
2022-10-18T04:09:06.510Z,101915.53
2022-10-18T04:12:11.874Z,101911.97
2022-10-18T04:15:14.377Z,101911.00
2022-10-18T04:18:16.768Z,101915.53
2022-10-18T04:21:19.313Z,101910.44
2022-10-18T04:24:21.856Z,101907.72
2022-10-18T04:27:25.545Z,101905.59
2022-10-18T04:30:28.209Z,101898.13
2022-10-18T04:33:30.596Z,101897.31
2022-10-18T04:36:33.013Z,101893.56
2022-10-18T04:39:35.474Z,101893.03
2022-10-18T04:42:37.897Z,101891.13
2022-10-18T04:45:40.212Z,101887.59
2022-10-18T04:48:42.650Z,101888.78
2022-10-18T04:51:45.143Z,101887.78
2022-10-18T04:54:47.518Z,101891.50
2022-10-18T04:57:49.929Z,101890.69
2022-10-18T05:00:52.632Z,101887.69
2022-10-18T05:03:55.200Z,101892.13
2022-10-18T05:06:57.932Z,101895.03
2022-10-18T05:10:03.922Z,101893.91
2022-10-18T05:13:07.262Z,101889.84
2022-10-18T05:16:17.852Z,101888.03
2022-10-18T05:19:20.422Z,101894.81
2022-10-18T05:22:22.975Z,101895.69
2022-10-18T05:25:25.420Z,101889.13
2022-10-18T05:28:39.707Z,101883.28
2022-10-18T05:31:43.115Z,101893.94
2022-10-18T05:34:45.583Z,101892.41
2022-10-18T05:37:48.702Z,101904.81
2022-10-18T05:40:53.248Z,101906.31
2022-10-18T05:43:55.761Z,101897.78
2022-10-18T05:46:58.494Z,101903.19
2022-10-18T05:50:00.974Z,101897.38
2022-10-18T05:53:12.167Z,101903.09
2022-10-18T05:56:20.952Z,101901.91
2022-10-18T05:59:23.495Z,101903.63
2022-10-18T06:02:26.014Z,101904.44
2022-10-18T06:05:28.492Z,101907.31
2022-10-18T06:08:31.410Z,101907.63
2022-10-18T06:11:34.031Z,101914.19
2022-10-18T06:14:37.631Z,101919.22
2022-10-18T06:17:40.073Z,101916.38
2022-10-18T06:20:42.713Z,101916.78
2022-10-18T06:23:52.266Z,101910.31
2022-10-18T06:26:54.824Z,101905.56
2022-10-18T06:29:57.488Z,101908.69
2022-10-18T06:33:01.070Z,101910.97
2022-10-18T06:36:06.118Z,101907.53
2022-10-18T06:39:08.607Z,101914.47
2022-10-18T06:42:11.036Z,101913.44
2022-10-18T06:45:15.840Z,101913.41
2022-10-18T06:51:27.217Z,101918.78
2022-10-18T06:54:29.756Z,101915.81
2022-10-18T06:57:32.120Z,101915.00
2022-10-18T07:00:35.911Z,101906.91
2022-10-18T07:03:38.530Z,101904.78
2022-10-18T07:06:41.052Z,101913.00
2022-10-18T07:09:46.027Z,101908.81
2022-10-18T07:12:48.471Z,101908.09
2022-10-18T07:16:05.992Z,101913.97
2022-10-18T07:19:08.527Z,101907.88
2022-10-18T07:22:11.030Z,101910.06
2022-10-18T07:25:13.668Z,101900.31
2022-10-18T07:28:16.129Z,101902.78
2022-10-18T07:31:18.757Z,101907.47
2022-10-18T07:34:21.258Z,101909.94
2022-10-18T07:37:26.660Z,101907.81
2022-10-18T07:40:31.891Z,101908.38
2022-10-18T07:43:35.581Z,101895.91
2022-10-18T07:46:37.969Z,101909.97
2022-10-18T07:49:41.092Z,101898.28
2022-10-18T07:52:43.553Z,101896.34
2022-10-18T07:55:46.243Z,101894.34
2022-10-18T07:58:53.691Z,101891.97
2022-10-18T08:01:56.284Z,101884.56
2022-10-18T08:04:58.938Z,101878.41
2022-10-18T08:08:04.305Z,101878.28
2022-10-18T08:11:24.469Z,101876.66
2022-10-18T08:14:26.959Z,101877.47
2022-10-18T08:17:29.419Z,101874.81
2022-10-18T08:20:33.333Z,101871.13
2022-10-18T08:23:36.944Z,101866.09
2022-10-18T08:26:39.393Z,101867.56
2022-10-18T08:29:42.034Z,101863.81
2022-10-18T08:32:44.452Z,101864.53
2022-10-18T08:36:01.288Z,101859.72
2022-10-18T08:39:03.954Z,101858.59
2022-10-18T08:42:27.986Z,101849.03
2022-10-18T08:45:41.900Z,101848.84
2022-10-18T08:48:52.169Z,101842.69
2022-10-18T08:51:56.047Z,101839.19
2022-10-18T08:55:29.311Z,101839.31
2022-10-18T08:58:33.363Z,101838.97
2022-10-18T09:01:41.954Z,101834.75
2022-10-18T09:05:06.803Z,101819.63
2022-10-18T09:08:30.541Z,101831.53
2022-10-18T09:11:41.809Z,101826.19
2022-10-18T09:15:02.581Z,101831.38
2022-10-18T09:18:20.263Z,101824.34
2022-10-18T09:21:51.845Z,101816.94
2022-10-18T09:25:18.132Z,101813.00
2022-10-18T09:28:46.282Z,101812.38
2022-10-18T09:32:03.720Z,101812.25
2022-10-18T09:35:14.914Z,101800.72
2022-10-18T09:38:21.886Z,101803.50
2022-10-18T09:41:24.306Z,101796.66
2022-10-18T09:44:35.985Z,101799.41
2022-10-18T09:47:45.448Z,101796.00
2022-10-18T09:50:57.105Z,101795.56
2022-10-18T09:54:12.986Z,101782.88
2022-10-18T09:57:21.778Z,101782.94
2022-10-18T10:00:38.785Z,101777.09
2022-10-18T10:03:42.357Z,101766.84
2022-10-18T10:06:52.913Z,101774.28
2022-10-18T10:09:59.934Z,101759.59
2022-10-18T10:13:17.836Z,101765.69
2022-10-18T10:16:20.316Z,101756.34
2022-10-18T10:19:53.657Z,101755.56
2022-10-18T10:23:07.489Z,101747.25
2022-10-18T10:26:22.773Z,101731.53
2022-10-18T10:29:49.073Z,101741.81
2022-10-18T10:32:53.093Z,101729.66
2022-10-18T10:36:00.889Z,101719.94
2022-10-18T10:39:12.515Z,101704.66
2022-10-18T10:42:15.020Z,101705.69
2022-10-18T10:45:17.728Z,101701.97
2022-10-18T10:48:21.158Z,101693.84
2022-10-18T10:51:38.738Z,101692.44
2022-10-18T10:54:50.407Z,101687.47
2022-10-18T10:57:56.368Z,101680.28
2022-10-18T11:01:16.530Z,101677.59
2022-10-18T11:04:25.673Z,101671.03
2022-10-18T11:07:36.231Z,101662.22
2022-10-18T11:11:23.293Z,101656.25
2022-10-18T11:14:38.788Z,101651.94
2022-10-18T11:18:10.814Z,101649.63
2022-10-18T11:21:23.151Z,101645.94
2022-10-18T11:24:25.839Z,101642.69
2022-10-18T11:27:53.889Z,101627.03
2022-10-18T11:31:17.123Z,101626.25
2022-10-18T11:34:57.010Z,101619.44
2022-10-18T11:38:18.090Z,101616.69
2022-10-18T11:41:39.956Z,101605.22
2022-10-18T11:44:57.767Z,101604.75
2022-10-18T11:48:18.807Z,101596.72
2022-10-18T11:52:03.260Z,101591.50
2022-10-18T11:55:18.926Z,101577.97
2022-10-18T11:58:50.758Z,101572.50
2022-10-18T12:02:15.311Z,101573.13
2022-10-18T12:05:23.743Z,101563.78
2022-10-18T12:08:37.113Z,101559.91
2022-10-18T12:11:58.539Z,101552.22
2022-10-18T12:15:14.407Z,101544.66
2022-10-18T12:18:20.343Z,101542.78
2022-10-18T12:21:25.887Z,101535.63
2022-10-18T12:24:31.931Z,101526.88
2022-10-18T12:27:44.026Z,101530.06
2022-10-18T12:31:18.851Z,101518.41
2022-10-18T12:34:21.368Z,101515.91
2022-10-18T12:37:36.134Z,101515.41
2022-10-18T12:40:46.062Z,101506.06
2022-10-18T12:43:54.786Z,101504.78
2022-10-18T12:47:02.776Z,101495.38
2022-10-18T12:50:23.045Z,101495.59
2022-10-18T12:53:27.953Z,101488.13
2022-10-18T12:56:32.874Z,101486.34
2022-10-18T12:59:35.242Z,101482.22
2022-10-18T13:02:37.908Z,101478.69
2022-10-18T13:06:04.177Z,101474.69
2022-10-18T13:09:21.005Z,101469.16
2022-10-18T13:12:23.422Z,101473.34
2022-10-18T13:15:35.449Z,101466.13
2022-10-18T13:18:47.709Z,101458.78
2022-10-18T13:21:59.589Z,101459.63
2022-10-18T13:25:17.269Z,101455.59
2022-10-18T13:28:19.683Z,101448.56
2022-10-18T13:31:45.114Z,101451.06
2022-10-18T13:34:47.742Z,101442.53
2022-10-18T13:38:00.007Z,101439.72
2022-10-18T13:41:08.732Z,101427.16
2022-10-18T13:44:33.242Z,101425.69
2022-10-18T13:47:38.077Z,101426.31
2022-10-18T13:50:43.064Z,101415.63
2022-10-18T13:54:11.196Z,101420.53
2022-10-18T13:57:41.875Z,101414.78
2022-10-18T14:00:50.507Z,101418.13
2022-10-18T14:04:11.160Z,101421.59
2022-10-18T14:07:19.165Z,101415.94
2022-10-18T14:10:57.407Z,101400.97
2022-10-18T14:14:13.515Z,101401.81
2022-10-18T14:17:24.981Z,101403.16
2022-10-18T14:20:49.517Z,101389.50
2022-10-18T14:24:00.391Z,101388.06
2022-10-18T14:27:13.212Z,101390.78
2022-10-18T14:30:20.208Z,101379.88
2022-10-18T14:33:43.713Z,101374.75
2022-10-18T14:36:48.458Z,101379.56
2022-10-18T14:39:51.069Z,101375.53
2022-10-18T14:42:53.486Z,101377.31
2022-10-18T14:46:09.410Z,101372.63
2022-10-18T14:49:13.171Z,101361.56
2022-10-18T14:52:18.529Z,101363.75
2022-10-18T14:55:26.941Z,101361.97
2022-10-18T14:58:30.217Z,101353.03
2022-10-18T15:01:33.123Z,101357.56
2022-10-18T15:04:35.696Z,101358.72
2022-10-18T15:07:38.410Z,101358.72
2022-10-18T15:10:41.654Z,101352.84
2022-10-18T15:13:53.482Z,101355.19
2022-10-18T15:17:03.447Z,101351.81
2022-10-18T15:20:27.282Z,101343.47
2022-10-18T15:23:31.331Z,101349.19
2022-10-18T15:26:33.798Z,101348.50
2022-10-18T15:29:37.752Z,101352.16
2022-10-18T15:32:48.580Z,101352.09
2022-10-18T15:35:53.065Z,101345.72
2022-10-18T15:39:18.394Z,101346.13
2022-10-18T15:42:38.798Z,101333.88
2022-10-18T15:49:18.124Z,101328.81
2022-10-18T15:52:39.310Z,101329.53
2022-10-18T15:55:46.746Z,101331.31
2022-10-18T15:58:51.281Z,101324.53
2022-10-18T16:01:54.337Z,101322.66
2022-10-18T16:05:01.805Z,101334.69
2022-10-18T16:08:04.356Z,101330.72
2022-10-18T16:11:08.204Z,101329.03
2022-10-18T16:14:10.827Z,101336.22
2022-10-18T16:17:16.921Z,101332.94
2022-10-18T16:20:22.278Z,101329.63
2022-10-18T16:23:28.700Z,101325.28
2022-10-18T16:26:32.069Z,101330.38
2022-10-18T16:29:35.088Z,101323.78
2022-10-18T16:32:37.486Z,101322.00
2022-10-18T16:35:39.853Z,101323.13
2022-10-18T16:38:42.980Z,101311.63
2022-10-18T16:41:46.516Z,101320.03
2022-10-18T16:44:49.116Z,101313.13
2022-10-18T16:47:51.543Z,101313.59
2022-10-18T16:50:55.946Z,101317.28
2022-10-18T16:53:58.349Z,101319.19
2022-10-18T16:57:00.717Z,101319.84
2022-10-18T17:00:04.268Z,101311.41
2022-10-18T17:03:09.495Z,101314.28
2022-10-18T17:06:21.026Z,101317.53
2022-10-18T17:09:23.351Z,101316.56
2022-10-18T17:12:25.816Z,101313.41
2022-10-18T17:15:31.573Z,101312.13
2022-10-18T17:18:37.214Z,101309.69
2022-10-18T17:21:39.790Z,101306.31
2022-10-18T17:24:42.157Z,101303.50
2022-10-18T17:27:45.599Z,101299.28
2022-10-18T17:30:54.446Z,101302.34
2022-10-18T17:33:58.628Z,101293.31
2022-10-18T17:37:01.180Z,101301.97
2022-10-18T17:40:06.743Z,101300.16
2022-10-18T17:43:10.325Z,101287.38
2022-10-18T17:46:14.221Z,101279.94
2022-10-18T17:49:16.980Z,101286.00
2022-10-18T17:52:19.351Z,101291.25
2022-10-18T17:55:21.741Z,101292.03
2022-10-18T17:58:24.227Z,101283.16
2022-10-18T18:01:26.823Z,101279.53
2022-10-18T18:04:29.396Z,101275.63
2022-10-18T18:07:31.880Z,101270.59
2022-10-18T18:10:35.361Z,101270.72
2022-10-18T18:13:37.910Z,101273.25
2022-10-18T18:16:43.134Z,101266.13
2022-10-18T18:19:45.631Z,101271.44
2022-10-18T18:22:48.048Z,101270.38
2022-10-18T18:25:57.490Z,101271.63
2022-10-18T18:32:03.652Z,101270.69
2022-10-18T18:35:06.407Z,101264.38
2022-10-18T18:38:09.161Z,101258.75
2022-10-18T18:41:17.580Z,101261.53
2022-10-18T18:44:22.469Z,101254.81
2022-10-18T18:47:24.832Z,101262.72
2022-10-18T18:50:28.249Z,101258.56
2022-10-18T18:53:31.180Z,101258.25
2022-10-18T18:56:34.104Z,101257.97
2022-10-18T18:59:36.753Z,101257.50
2022-10-18T19:02:39.172Z,101263.28
2022-10-18T19:05:41.575Z,101263.50
2022-10-18T19:08:45.022Z,101256.69
2022-10-18T19:11:49.752Z,101258.34
2022-10-18T19:14:52.072Z,101252.19
2022-10-18T19:17:56.246Z,101250.22
2022-10-18T19:20:58.643Z,101253.44
2022-10-18T19:24:01.882Z,101249.63
2022-10-18T19:27:12.299Z,101253.50
2022-10-18T19:30:14.874Z,101253.50
2022-10-18T19:33:35.510Z,101250.41
2022-10-18T19:36:47.161Z,101249.44
2022-10-18T19:39:49.736Z,101245.63
2022-10-18T19:42:52.227Z,101245.00
2022-10-18T19:45:54.703Z,101239.88
2022-10-18T19:48:57.351Z,101239.31
2022-10-18T19:51:59.828Z,101236.41
2022-10-18T19:55:02.170Z,101243.34
2022-10-18T19:58:04.623Z,101239.31
2022-10-18T20:01:07.090Z,101238.75
2022-10-18T20:04:10.555Z,101241.47
2022-10-18T20:07:12.951Z,101241.25
2022-10-18T20:10:17.011Z,101240.28
2022-10-18T20:13:19.884Z,101242.78
2022-10-18T20:16:28.088Z,101241.50
2022-10-18T20:19:31.552Z,101248.81
2022-10-18T20:22:34.249Z,101250.66
2022-10-18T20:25:36.814Z,101247.59
2022-10-18T20:28:39.941Z,101240.94
2022-10-18T20:31:42.372Z,101233.94
2022-10-18T20:34:44.725Z,101238.38
2022-10-18T20:37:47.420Z,101227.25
2022-10-18T20:40:52.285Z,101228.44
2022-10-18T20:43:57.072Z,101225.84
2022-10-18T20:46:59.561Z,101226.44
2022-10-18T20:50:01.953Z,101226.44
2022-10-18T20:53:04.263Z,101215.94
2022-10-18T20:56:09.688Z,101217.38
2022-10-18T20:59:12.252Z,101211.69
2022-10-18T21:02:14.631Z,101214.16
2022-10-18T21:05:18.335Z,101202.13
2022-10-18T21:08:20.708Z,101203.81
2022-10-18T21:11:24.017Z,101200.56
2022-10-18T21:14:29.150Z,101193.13
2022-10-18T21:17:31.619Z,101185.69
2022-10-18T21:20:41.440Z,101182.53
2022-10-18T21:23:44.618Z,101170.50
2022-10-18T21:26:47.936Z,101174.84
2022-10-18T21:29:50.277Z,101167.81
2022-10-18T21:32:52.715Z,101168.88
2022-10-18T21:35:55.039Z,101163.25
2022-10-18T21:38:57.588Z,101161.81
2022-10-18T21:41:59.931Z,101156.03
2022-10-18T21:45:02.269Z,101153.97
2022-10-18T21:48:04.828Z,101143.84
2022-10-18T21:51:08.536Z,101149.00
2022-10-18T21:54:13.635Z,101147.91
2022-10-18T21:57:15.990Z,101142.41
2022-10-18T22:00:19.327Z,101134.78
2022-10-18T22:03:23.297Z,101140.09
2022-10-18T22:06:29.176Z,101131.53
2022-10-18T22:09:31.802Z,101129.53
2022-10-18T22:12:34.235Z,101131.44
2022-10-18T22:18:46.042Z,101122.00
2022-10-18T22:21:48.633Z,101119.31
2022-10-18T22:24:50.946Z,101120.19
2022-10-18T22:27:53.297Z,101108.28
2022-10-18T22:30:55.602Z,101110.69
2022-10-18T22:34:00.565Z,101114.34
2022-10-18T22:37:02.997Z,101104.38
2022-10-18T22:40:05.939Z,101099.13
2022-10-18T22:43:08.341Z,101103.50
2022-10-18T22:46:12.658Z,101100.56
2022-10-18T22:49:15.216Z,101103.72
2022-10-18T22:52:17.554Z,101098.94
2022-10-18T22:55:20.004Z,101097.91
2022-10-18T22:58:22.778Z,101101.31
2022-10-18T23:01:25.426Z,101100.28
2022-10-18T23:04:27.872Z,101109.59
2022-10-18T23:07:30.257Z,101101.53
2022-10-18T23:10:38.418Z,101091.22
2022-10-18T23:13:40.794Z,101089.09
2022-10-18T23:16:43.330Z,101099.41
2022-10-18T23:19:46.387Z,101103.13
2022-10-18T23:22:48.841Z,101112.09
2022-10-18T23:25:54.186Z,101105.69
2022-10-18T23:28:57.316Z,101100.66
2022-10-18T23:31:59.847Z,101089.28
2022-10-18T23:35:02.188Z,101095.28
2022-10-18T23:38:04.543Z,101094.94
2022-10-18T23:41:10.262Z,101093.28
2022-10-18T23:44:12.723Z,101090.69
2022-10-18T23:47:15.714Z,101084.66
2022-10-18T23:50:20.536Z,101087.44
2022-10-18T23:53:23.378Z,101072.81
2022-10-18T23:56:25.842Z,101083.81
2022-10-18T23:59:28.246Z,101106.22
